Time;durP1;ratioP1;P1;durP2;ratioP2;P2;SDS_P1;SDS_P2;PMS_P1;PMS_P2;Temp;Humidity;BMP_temperature;BMP_pressure;BME280_temperature;BME280_humidity;BME280_pressure;Samples;Min_cycle;Max_cycle;Signal;HPM_P1;HPM_P2
2023/03/30 00:00:37;;;;;;;6.43;3.40;;;;;;;6.85;60.70;102219.22;2081557;28;20165;-65
2023/03/30 00:01:37;;;;;;;5.97;2.80;;;;;;;6.03;60.93;102091.53;2081526;28;20649;-66
2023/03/30 00:02:37;;;;;;;6.20;3.27;;;;;;;6.84;61.76;102223.16;2081400;28;20177;-66
2023/03/30 00:03:38;;;;;;;7.17;3.10;;;;;;;6.04;62.43;102097.81;2081492;28;20180;-65
2023/03/30 00:04:41;;;;;;;13.00;3.93;;;;;;;6.71;62.69;102215.44;2081456;28;20683;-66
2023/03/30 00:05:42;;;;;;;6.63;3.35;;;;;;;6.74;63.08;102222.97;2081523;28;20169;-65
2023/03/30 00:06:42;;;;;;;15.27;4.03;;;;;;;6.73;63.17;102221.38;2081516;28;20207;-65
2023/03/30 00:07:44;;;;;;;12.27;4.13;;;;;;;6.59;64.96;102204.59;2081612;28;20180;-66
2023/03/30 00:08:44;;;;;;;5.13;2.80;;;;;;;6.49;63.09;102200.50;2081373;28;20615;-66
2023/03/30 00:09:45;;;;;;;11.00;3.70;;;;;;;6.60;63.63;102222.72;2081468;28;20267;-65
2023/03/30 00:10:46;;;;;;;5.30;2.67;;;;;;;6.03;63.70;102130.03;2081374;28;20229;-65
2023/03/30 00:11:47;;;;;;;10.57;3.78;;;;;;;6.60;63.68;102226.28;2081328;28;20173;-66
2023/03/30 00:12:49;;;;;;;10.80;3.80;;;;;;;6.60;64.42;102225.47;2081350;28;20176;-65
2023/03/30 00:13:50;;;;;;;10.50;3.30;;;;;;;5.53;64.70;102060.69;2081356;28;20550;-66
2023/03/30 00:14:50;;;;;;;5.50;3.10;;;;;;;6.58;63.68;102230.56;2081384;28;20169;-66
2023/03/30 00:15:51;;;;;;;6.87;3.30;;;;;;;6.58;63.26;102236.88;2081585;28;20257;-66
2023/03/30 00:16:52;;;;;;;5.93;3.10;;;;;;;6.17;63.54;102170.78;2081336;28;20200;-66
2023/03/30 00:17:53;;;;;;;5.47;3.43;;;;;;;6.59;61.78;102232.94;2081363;28;20192;-65
2023/03/30 00:18:54;;;;;;;7.82;3.88;;;;;;;6.57;61.39;102232.50;2081452;28;20257;-65
2023/03/30 00:19:55;;;;;;;8.10;4.20;;;;;;;6.54;61.47;102230.50;2081539;28;20181;-66
2023/03/30 00:20:57;;;;;;;6.53;4.00;;;;;;;6.54;62.40;102224.19;2082788;28;20181;-66
2023/03/30 00:21:57;;;;;;;6.03;4.05;;;;;;;6.57;61.44;102229.75;2083001;28;20255;-66
2023/03/30 00:22:58;;;;;;;8.37;4.30;;;;;;;6.12;63.69;102155.38;2082860;28;20179;-66
2023/03/30 00:23:58;;;;;;;6.80;3.63;;;;;;;6.61;65.36;102230.63;2082660;28;20185;-66
2023/03/30 00:24:59;;;;;;;7.00;3.37;;;;;;;6.60;68.35;102215.25;2082805;28;20181;-66
2023/03/30 00:26:00;;;;;;;12.93;3.27;;;;;;;6.67;69.81;102233.88;2082842;28;20595;-65
2023/03/30 00:27:00;;;;;;;6.13;3.30;;;;;;;6.60;70.34;102212.50;2082952;28;20708;-66
2023/03/30 00:28:01;;;;;;;6.90;3.20;;;;;;;6.63;72.37;102225.56;2082843;28;20242;-66
2023/03/30 00:29:01;;;;;;;5.30;3.17;;;;;;;6.55;72.45;102228.53;2082832;28;20169;-65
2023/03/30 00:30:07;;;;;;;3.30;2.40;;;;;;;6.64;72.29;102238.16;2083039;28;20200;-66
2023/03/30 00:31:10;;;;;;;5.30;3.10;;;;;;;6.64;72.59;102237.34;2082889;28;20170;-66
2023/03/30 00:32:10;;;;;;;4.20;2.92;;;;;;;6.61;73.72;102238.09;2082997;28;20176;-65
2023/03/30 00:33:11;;;;;;;5.90;3.27;;;;;;;6.57;72.88;102237.22;2082908;28;20207;-66
2023/03/30 00:34:11;;;;;;;5.73;3.27;;;;;;;5.96;72.86;102146.44;2082125;28;20219;-65
2023/03/30 00:35:13;;;;;;;5.10;2.97;;;;;;;6.40;73.04;102221.97;2082222;28;20255;-65
2023/03/30 00:36:15;;;;;;;5.22;2.75;;;;;;;6.47;74.46;102229.56;2082772;28;20186;-66
2023/03/30 00:37:15;;;;;;;6.72;3.40;;;;;;;6.46;77.33;102231.50;2082716;28;20185;-67
2023/03/30 00:38:16;;;;;;;6.83;3.27;;;;;;;6.42;74.95;102241.66;2082714;28;20251;-65
2023/03/30 00:39:17;;;;;;;6.03;3.20;;;;;;;6.41;75.24;102228.28;2082734;28;20177;-65
2023/03/30 00:40:20;;;;;;;5.13;3.30;;;;;;;6.40;76.15;102229.44;2082734;28;20191;-66
2023/03/30 00:41:20;;;;;;;5.07;3.20;;;;;;;6.37;75.43;102228.22;2082827;28;20274;-65
2023/03/30 00:42:21;;;;;;;6.63;3.13;;;;;;;5.70;75.32;102127.00;2082719;28;20180;-66
2023/03/30 00:43:21;;;;;;;4.90;3.00;;;;;;;6.33;76.40;102234.81;2082557;28;20231;-66
2023/03/30 00:44:59;;;;;;;5.63;2.80;;;;;;;6.26;77.19;102227.19;2082622;28;20199;-66
2023/03/30 00:46:00;;;;;;;5.70;2.92;;;;;;;6.24;77.24;102235.03;2082730;28;20701;-65
2023/03/30 00:47:00;;;;;;;5.13;3.23;;;;;;;5.57;77.39;102122.03;2082672;28;20532;-66
2023/03/30 00:48:35;;;;;;;7.10;3.30;;;;;;;6.17;77.05;102234.09;2082667;28;20172;-65
2023/03/30 00:49:36;;;;;;;5.03;3.40;;;;;;;6.12;75.57;102226.16;2057740;28;20661;-65
2023/03/30 00:50:39;;;;;;;7.50;3.43;;;;;;;6.12;74.25;102234.41;2075742;28;20577;-65
2023/03/30 00:51:41;;;;;;;7.05;3.15;;;;;;;6.11;72.99;102232.81;2082029;28;20192;-66
2023/03/30 00:52:44;;;;;;;5.78;3.25;;;;;;;5.55;73.67;102151.84;2081988;28;20217;-66
2023/03/30 00:53:49;;;;;;;6.00;3.33;;;;;;;5.99;74.68;102217.25;2082058;28;20572;-65
2023/03/30 00:54:55;;;;;;;6.18;3.40;;;;;;;4.84;74.77;102041.56;2082624;28;20170;-65
2023/03/30 00:55:57;;;;;;;5.15;3.17;;;;;;;6.01;75.35;102222.38;2082689;28;20249;-66
2023/03/30 00:56:58;;;;;;;4.80;3.20;;;;;;;5.87;75.18;102200.09;2082591;28;20175;-65
2023/03/30 00:57:59;;;;;;;6.50;3.10;;;;;;;5.97;75.64;102224.28;2082709;28;20199;-66
2023/03/30 00:59:01;;;;;;;6.00;3.23;;;;;;;5.92;76.01;102210.81;2082609;28;20681;-65
2023/03/30 01:00:05;;;;;;;9.02;3.33;;;;;;;5.97;77.44;102219.56;2082516;28;20411;-65
2023/03/30 01:01:09;;;;;;;8.20;3.33;;;;;;;5.01;78.74;102068.63;2082731;28;20178;-65
2023/03/30 01:02:09;;;;;;;7.63;3.45;;;;;;;5.97;79.92;102216.00;2082570;28;20184;-65
2023/03/30 01:03:17;;;;;;;5.23;2.93;;;;;;;5.95;81.14;102212.84;2082670;28;20644;-65
2023/03/30 01:04:18;;;;;;;5.60;3.10;;;;;;;5.09;80.79;102079.41;2082468;28;20197;-65
2023/03/30 01:05:19;;;;;;;7.57;2.90;;;;;;;5.87;82.27;102211.09;2082571;28;20184;-65
2023/03/30 01:06:23;;;;;;;5.55;2.85;;;;;;;5.82;82.18;102209.44;2082439;28;20184;-66
2023/03/30 01:07:23;;;;;;;5.82;2.95;;;;;;;5.79;82.61;102212.88;2082535;28;20652;-65
2023/03/30 01:08:31;;;;;;;7.50;2.87;;;;;;;5.80;82.02;102213.72;2082633;28;20613;-66
2023/03/30 01:09:31;;;;;;;6.32;3.25;;;;;;;5.79;82.26;102212.09;2082651;28;20214;-66
2023/03/30 01:10:33;;;;;;;7.40;3.10;;;;;;;5.77;82.54;102214.38;2082587;28;20670;-65
2023/03/30 01:11:34;;;;;;;4.75;2.80;;;;;;;5.72;82.71;102215.47;2082492;28;20336;-65
2023/03/30 01:12:35;;;;;;;7.93;3.40;;;;;;;5.73;83.72;102208.81;2082582;28;20178;-65
2023/03/30 01:13:49;;;;;;;8.27;3.42;;;;;;;5.68;83.67;102211.03;2082649;28;20172;-65
2023/03/30 01:14:50;;;;;;;6.55;3.17;;;;;;;5.49;83.87;102191.78;2082619;28;20156;-65
2023/03/30 01:16:17;;;;;;;7.63;3.30;;;;;;;5.66;84.98;102213.38;2082497;28;20175;-65
2023/03/30 01:17:20;;;;;;;7.93;3.08;;;;;;;5.63;85.92;102214.88;2082665;28;20163;-65
2023/03/30 01:18:53;;;;;;;9.52;3.65;;;;;;;5.55;86.41;102210.38;2082413;28;20187;-65
2023/03/30 01:20:24;;;;;;;6.78;3.10;;;;;;;5.41;87.08;102206.53;2082427;28;20199;-65
2023/03/30 01:21:40;;;;;;;6.38;3.05;;;;;;;5.33;87.66;102204.78;2082557;28;20244;-65
2023/03/30 01:22:52;;;;;;;7.78;3.35;;;;;;;5.31;87.71;102209.84;2082522;28;20723;-65
2023/03/30 01:23:56;;;;;;;6.38;3.38;;;;;;;5.29;87.99;102212.94;2082343;28;20186;-65
2023/03/30 01:25:35;;;;;;;14.55;3.80;;;;;;;5.26;88.64;102212.88;2081691;28;20263;-66
2023/03/30 01:26:42;;;;;;;10.55;4.25;;;;;;;5.22;88.36;102210.03;2082137;28;20174;-65
2023/03/30 01:28:08;;;;;;;18.58;5.63;;;;;;;5.19;88.05;102215.47;2082358;28;20184;-65
2023/03/30 01:29:11;;;;;;;20.83;5.65;;;;;;;5.15;89.51;102206.31;2082634;28;20612;-65
2023/03/30 01:30:49;;;;;;;13.48;4.50;;;;;;;5.12;90.89;102207.84;2082286;28;20261;-66
2023/03/30 01:32:05;;;;;;;15.35;5.07;;;;;;;5.11;92.02;102208.19;2081681;28;20169;-65
2023/03/30 01:33:30;;;;;;;12.82;4.57;;;;;;;5.12;91.19;102218.06;2082462;28;20166;-65
2023/03/30 01:34:52;;;;;;;12.40;4.57;;;;;;;5.10;90.76;102221.16;2082532;28;20237;-65
2023/03/30 01:36:20;;;;;;;11.30;4.28;;;;;;;5.10;91.66;102212.91;2082326;28;20173;-65
2023/03/30 01:37:56;;;;;;;11.23;4.38;;;;;;;5.10;90.85;102209.34;2082495;28;20225;-65
2023/03/30 01:39:27;;;;;;;11.85;4.28;;;;;;;4.20;90.58;102085.94;2076817;28;20192;-66
2023/03/30 01:40:58;;;;;;;11.13;4.28;;;;;;;5.04;90.28;102211.59;2076892;28;20191;-65
2023/03/30 01:42:10;;;;;;;15.63;4.32;;;;;;;4.67;89.85;102173.78;2082358;28;20162;-65
2023/03/30 01:43:22;;;;;;;10.35;4.05;;;;;;;4.41;89.88;102127.63;2082144;28;20297;-65
2023/03/30 01:44:46;;;;;;;7.53;4.50;;;;;;;5.01;90.01;102223.28;2082327;28;20186;-65
2023/03/30 01:46:00;;;;;;;8.93;3.42;;;;;;;5.00;89.06;102220.88;2082232;28;20224;-65
2023/03/30 01:47:28;;;;;;;10.93;3.42;;;;;;;4.96;88.15;102229.06;2082373;28;20168;-65
2023/03/30 01:48:44;;;;;;;7.35;3.17;;;;;;;4.74;88.22;102195.91;2077047;28;20196;-65
2023/03/30 01:49:56;;;;;;;13.30;3.42;;;;;;;4.88;87.54;102221.78;2082326;28;20167;-65
2023/03/30 01:51:01;;;;;;;6.07;3.40;;;;;;;4.85;86.97;102222.50;2082329;28;20221;-65
2023/03/30 01:52:09;;;;;;;5.57;3.70;;;;;;;3.74;86.37;102047.53;2081550;28;20175;-66
2023/03/30 01:53:16;;;;;;;10.55;3.85;;;;;;;4.84;86.75;102229.16;2081814;28;20156;-65
2023/03/30 01:54:23;;;;;;;6.85;3.42;;;;;;;4.83;87.28;102226.75;2082186;28;20163;-65
2023/03/30 01:55:32;;;;;;;9.52;4.00;;;;;;;4.62;87.21;102193.28;2082288;28;20163;-65
2023/03/30 01:56:45;;;;;;;8.75;4.10;;;;;;;4.47;87.24;102170.13;2082221;28;20161;-65
2023/03/30 01:57:58;;;;;;;11.02;4.10;;;;;;;4.79;87.41;102225.88;2082358;28;20163;-65
2023/03/30 01:59:12;;;;;;;9.98;4.00;;;;;;;4.77;87.98;102226.22;2082257;28;20612;-65
2023/03/30 02:00:16;;;;;;;10.88;4.30;;;;;;;4.80;89.09;102230.19;2082139;28;20184;-65
2023/03/30 02:01:19;;;;;;;9.52;3.95;;;;;;;4.22;88.98;102126.75;2082127;28;20189;-65
2023/03/30 02:02:23;;;;;;;12.32;4.50;;;;;;;4.71;89.68;102205.66;2082073;28;20182;-65
2023/03/30 02:03:27;;;;;;;14.27;4.93;;;;;;;4.75;90.04;102228.53;2082183;28;20193;-65
2023/03/30 02:04:32;;;;;;;8.63;4.40;;;;;;;4.76;90.78;102232.88;2082088;28;20225;-65
2023/03/30 02:05:35;;;;;;;14.57;4.80;;;;;;;4.78;91.26;102216.03;2082020;28;20177;-66
2023/03/30 02:06:51;;;;;;;12.13;4.95;;;;;;;4.74;92.00;102237.94;2082052;28;20229;-66
2023/03/30 02:07:56;;;;;;;9.88;4.68;;;;;;;4.79;92.53;102229.41;2082207;28;20201;-66
2023/03/30 02:08:59;;;;;;;15.10;4.85;;;;;;;4.84;92.97;102229.16;2082246;28;20205;-64
2023/03/30 02:10:03;;;;;;;10.25;4.80;;;;;;;4.86;93.38;102234.28;2081992;28;20183;-65
2023/03/30 02:11:04;;;;;;;26.80;6.65;;;;;;;4.88;92.51;102231.97;2081929;28;20184;-65
2023/03/30 02:12:07;;;;;;;28.17;7.30;;;;;;;4.86;92.71;102224.09;2081333;28;20188;-65
2023/03/30 02:13:09;;;;;;;21.08;6.45;;;;;;;4.89;91.62;102233.56;2081430;28;20712;-65
2023/03/30 02:14:13;;;;;;;21.85;6.75;;;;;;;4.85;91.50;102232.69;2081929;28;20179;-64
2023/03/30 02:15:16;;;;;;;20.38;5.38;;;;;;;4.74;92.04;102215.97;2081988;28;20174;-65
2023/03/30 02:16:25;;;;;;;8.10;4.15;;;;;;;4.63;92.98;102216.84;2082143;28;20654;-65
2023/03/30 02:17:28;;;;;;;10.43;4.53;;;;;;;4.72;92.85;102228.44;2081977;28;20168;-64
2023/03/30 02:18:28;;;;;;;15.43;5.45;;;;;;;4.72;93.00;102226.47;2082037;28;20210;-65
2023/03/30 02:19:29;;;;;;;18.40;5.80;;;;;;;4.71;92.53;102229.56;2082016;28;20184;-65
2023/03/30 02:20:31;;;;;;;25.43;5.67;;;;;;;4.63;93.08;102223.13;2082013;28;20180;-65
2023/03/30 02:21:32;;;;;;;26.15;6.10;;;;;;;4.72;92.51;102234.72;2081954;28;20179;-65
2023/03/30 02:22:33;;;;;;;24.70;7.17;;;;;;;4.55;92.65;102217.78;2081908;28;20176;-65
2023/03/30 02:23:38;;;;;;;23.87;6.43;;;;;;;4.68;92.05;102235.78;2081946;28;20175;-65
2023/03/30 02:24:39;;;;;;;13.55;4.10;;;;;;;4.71;92.73;102240.56;2081973;28;20191;-65
2023/03/30 02:25:40;;;;;;;8.02;4.03;;;;;;;4.72;93.00;102239.44;2081895;28;20184;-65
2023/03/30 02:26:41;;;;;;;9.23;3.92;;;;;;;4.70;93.51;102234.28;2082046;28;20189;-65
2023/03/30 02:27:42;;;;;;;7.17;3.93;;;;;;;4.55;95.26;102224.09;2081918;28;20180;-65
2023/03/30 02:28:43;;;;;;;7.37;4.23;;;;;;;3.91;94.71;102129.47;2081895;28;20179;-66
2023/03/30 02:29:44;;;;;;;11.10;4.20;;;;;;;4.57;93.73;102235.50;2081976;28;20527;-66
2023/03/30 02:30:46;;;;;;;10.48;3.70;;;;;;;4.51;92.54;102225.16;2081855;28;20188;-65
2023/03/30 02:31:49;;;;;;;9.40;4.45;;;;;;;4.49;93.52;102227.44;2081802;28;20187;-65
2023/03/30 02:32:55;;;;;;;7.40;3.50;;;;;;;4.50;92.76;102227.09;2081831;28;20178;-66
2023/03/30 02:34:27;;;;;;;6.00;3.15;;;;;;;4.47;92.35;102238.00;2081852;28;20175;-65
2023/03/30 02:35:33;;;;;;;8.73;3.20;;;;;;;4.44;92.75;102238.69;2082073;28;20216;-65
2023/03/30 02:37:02;;;;;;;6.78;3.53;;;;;;;4.44;92.92;102244.97;2081843;28;20190;-65
2023/03/30 02:38:31;;;;;;;10.60;3.90;;;;;;;4.48;92.75;102237.63;2081923;28;20213;-65
2023/03/30 02:40:11;;;;;;;6.55;3.38;;;;;;;4.51;93.06;102241.63;2081181;28;20187;-66
2023/03/30 02:41:23;;;;;;;7.40;3.45;;;;;;;4.50;92.32;102238.06;2081569;28;20179;-66
2023/03/30 02:42:29;;;;;;;8.80;4.00;;;;;;;4.50;91.79;102234.50;2081938;28;20172;-64
2023/03/30 02:43:37;;;;;;;7.63;3.70;;;;;;;4.50;92.00;102242.75;2081025;28;20236;-65
2023/03/30 02:45:04;;;;;;;6.03;3.50;;;;;;;4.49;92.14;102241.16;2081801;28;20197;-64
2023/03/30 02:46:10;;;;;;;4.88;3.08;;;;;;;4.50;91.62;102240.81;2081660;28;20677;-64
2023/03/30 02:47:21;;;;;;;5.28;3.20;;;;;;;4.42;91.10;102214.31;2081924;28;20232;-65
2023/03/30 02:48:51;;;;;;;4.68;3.15;;;;;;;4.57;90.39;102235.50;2081865;28;20592;-65
2023/03/30 02:49:58;;;;;;;5.45;3.22;;;;;;;4.58;90.98;102241.81;2081963;28;20156;-65
2023/03/30 02:51:26;;;;;;;7.57;3.72;;;;;;;4.55;90.91;102243.31;2081754;28;20159;-65
2023/03/30 02:52:36;;;;;;;5.55;3.10;;;;;;;4.58;90.64;102237.13;2081985;28;20176;-65
2023/03/30 02:53:46;;;;;;;6.85;2.85;;;;;;;4.60;91.29;102265.00;2081812;28;20182;-64
2023/03/30 02:54:51;;;;;;;6.18;3.38;;;;;;;4.62;91.04;102243.47;2081696;28;20673;-64
2023/03/30 02:56:06;;;;;;;6.10;2.97;;;;;;;4.63;90.45;102239.59;2081668;28;20552;-65
2023/03/30 02:57:17;;;;;;;6.90;3.08;;;;;;;4.65;90.06;102242.78;2081948;28;20256;-65
2023/03/30 02:58:29;;;;;;;8.63;3.33;;;;;;;4.66;90.12;102236.13;2081913;28;20169;-64
2023/03/30 02:59:36;;;;;;;7.40;3.28;;;;;;;4.65;90.04;102245.53;2081801;28;20164;-65
2023/03/30 03:00:55;;;;;;;10.73;3.33;;;;;;;4.67;90.21;102247.94;2081841;28;20534;-64
2023/03/30 03:02:03;;;;;;;7.07;3.40;;;;;;;4.10;89.84;102176.22;2081753;28;20171;-65
2023/03/30 03:03:11;;;;;;;7.72;3.72;;;;;;;4.65;90.52;102251.03;2080953;28;20634;-65
2023/03/30 03:04:14;;;;;;;8.68;3.85;;;;;;;4.67;90.69;102248.72;2081097;28;20240;-65
2023/03/30 03:05:15;;;;;;;10.88;4.07;;;;;;;4.69;91.60;102249.19;2081746;28;20183;-64
2023/03/30 03:06:19;;;;;;;6.38;3.67;;;;;;;4.53;91.64;102220.09;2081614;28;20565;-65
2023/03/30 03:07:20;;;;;;;4.78;3.22;;;;;;;4.74;90.67;102245.34;2081617;28;20267;-65
2023/03/30 03:08:24;;;;;;;7.40;3.60;;;;;;;4.23;90.66;102167.56;2081623;28;20196;-65
2023/03/30 03:09:24;;;;;;;5.25;3.20;;;;;;;4.74;90.24;102245.34;2081624;28;20592;-65
2023/03/30 03:10:25;;;;;;;6.30;3.30;;;;;;;4.76;90.11;102248.53;2081618;28;20211;-65
2023/03/30 03:11:26;;;;;;;9.20;3.67;;;;;;;4.78;89.97;102238.00;2081727;28;20180;-66
2023/03/30 03:12:27;;;;;;;8.47;3.90;;;;;;;4.81;90.71;102237.28;2081837;28;20200;-65
2023/03/30 03:13:28;;;;;;;7.50;4.15;;;;;;;4.81;90.41;102234.53;2081590;28;20177;-66
2023/03/30 03:14:28;;;;;;;6.53;4.13;;;;;;;4.60;90.22;102210.09;2081610;28;20180;-65
2023/03/30 03:15:29;;;;;;;8.80;4.13;;;;;;;4.79;90.65;102237.66;2081793;28;20267;-65
2023/03/30 03:16:29;;;;;;;14.37;4.67;;;;;;;4.85;90.09;102244.47;2081539;28;20192;-65
2023/03/30 03:17:33;;;;;;;7.70;4.13;;;;;;;4.86;90.52;102237.00;2081574;28;20190;-65
2023/03/30 03:18:40;;;;;;;8.30;3.95;;;;;;;4.87;90.78;102238.63;2081626;28;20184;-65
2023/03/30 03:19:40;;;;;;;6.68;4.10;;;;;;;4.85;91.32;102243.66;2080960;28;20183;-65
2023/03/30 03:20:41;;;;;;;6.43;3.40;;;;;;;3.91;90.87;102097.31;2081256;28;20246;-65
2023/03/30 03:21:41;;;;;;;6.83;3.73;;;;;;;4.82;91.02;102247.13;2081574;28;20642;-65
2023/03/30 03:22:42;;;;;;;8.20;3.87;;;;;;;4.83;91.01;102243.22;2081704;28;20262;-65
2023/03/30 03:23:43;;;;;;;5.27;3.20;;;;;;;4.81;90.68;102238.09;2081532;28;20183;-65
2023/03/30 03:24:43;;;;;;;7.03;3.47;;;;;;;4.79;91.11;102234.09;2081510;28;20289;-66
2023/03/30 03:25:44;;;;;;;7.17;3.70;;;;;;;4.81;91.20;102240.03;2081662;28;20177;-64
2023/03/30 03:26:44;;;;;;;6.60;3.57;;;;;;;4.72;91.05;102222.94;2081592;28;20180;-65
2023/03/30 03:27:46;;;;;;;6.60;3.53;;;;;;;4.79;91.57;102232.16;2081516;28;20186;-65
2023/03/30 03:28:46;;;;;;;5.78;3.72;;;;;;;4.81;91.11;102224.34;2081512;28;20172;-65
2023/03/30 03:29:46;;;;;;;5.63;3.70;;;;;;;4.81;91.58;102237.28;2081950;28;20275;-66
2023/03/30 03:30:50;;;;;;;7.90;3.50;;;;;;;4.64;91.50;102204.69;2081536;28;20183;-64
2023/03/30 03:31:51;;;;;;;5.53;3.85;;;;;;;4.85;91.97;102240.91;2081509;28;20177;-65
2023/03/30 03:32:52;;;;;;;6.83;3.53;;;;;;;4.84;91.76;102231.09;2081636;28;20642;-65
2023/03/30 03:33:52;;;;;;;8.93;3.40;;;;;;;4.78;92.01;102233.28;2081509;28;20325;-64
2023/03/30 03:34:53;;;;;;;6.47;3.97;;;;;;;4.83;92.49;102235.78;2080849;28;20179;-65
2023/03/30 03:35:53;;;;;;;6.90;3.87;;;;;;;4.85;93.33;102228.00;2080992;28;20173;-65
2023/03/30 03:36:54;;;;;;;8.23;3.80;;;;;;;4.85;93.94;102227.19;2081509;28;20576;-65
2023/03/30 03:37:54;;;;;;;11.67;4.07;;;;;;;4.79;93.18;102220.38;2081631;28;20184;-65
2023/03/30 03:38:55;;;;;;;11.73;4.00;;;;;;;4.84;93.77;102233.84;2072850;28;20210;-65
2023/03/30 03:39:55;;;;;;;7.70;4.10;;;;;;;4.72;93.54;102206.47;2072781;28;20264;-65
2023/03/30 03:40:57;;;;;;;10.23;4.20;;;;;;;4.87;94.31;102220.19;2081462;28;20184;-65
2023/03/30 03:41:58;;;;;;;7.35;3.65;;;;;;;4.89;93.96;102228.88;2081596;28;20180;-65
2023/03/30 03:42:58;;;;;;;8.37;3.60;;;;;;;4.94;94.26;102219.56;2081263;28;20184;-64
2023/03/30 03:43:59;;;;;;;9.40;3.73;;;;;;;4.94;94.26;102231.38;2081570;28;20220;-64
2023/03/30 03:44:59;;;;;;;7.87;3.43;;;;;;;4.96;93.76;102222.75;2081490;28;20634;-66
2023/03/30 03:46:00;;;;;;;5.37;3.53;;;;;;;4.93;93.26;102224.25;2081464;28;20193;-65
2023/03/30 03:47:00;;;;;;;9.60;3.40;;;;;;;4.91;92.88;102214.78;2081472;28;20183;-65
2023/03/30 03:48:00;;;;;;;12.30;4.30;;;;;;;4.84;92.73;102203.63;2081587;28;20178;-65
2023/03/30 03:49:01;;;;;;;13.33;4.43;;;;;;;4.98;93.33;102223.97;2081483;28;20260;-65
2023/03/30 03:50:05;;;;;;;13.53;4.27;;;;;;;4.99;92.99;102227.53;2081474;28;20172;-65
2023/03/30 03:51:06;;;;;;;13.82;4.78;;;;;;;4.97;93.12;102227.88;2081442;28;20176;-65
2023/03/30 03:52:06;;;;;;;12.80;4.17;;;;;;;4.96;93.36;102231.78;2081447;28;20263;-65
2023/03/30 03:53:11;;;;;;;15.60;4.57;;;;;;;4.45;93.53;102160.66;2081457;28;20204;-65
2023/03/30 03:54:11;;;;;;;7.75;3.60;;;;;;;5.04;95.24;102236.31;2081508;28;20641;-65
2023/03/30 03:55:12;;;;;;;6.33;3.60;;;;;;;4.85;97.14;102191.47;2082137;28;20539;-65
2023/03/30 03:56:13;;;;;;;7.47;3.42;;;;;;;5.07;96.82;102229.31;2083067;28;20177;-65
2023/03/30 03:57:14;;;;;;;8.53;4.23;;;;;;;4.74;97.88;102173.94;2082070;28;20242;-62
2023/03/30 03:58:15;;;;;;;9.20;3.80;;;;;;;5.09;96.66;102227.81;2081613;28;20576;-62
2023/03/30 03:59:16;;;;;;;9.10;4.40;;;;;;;5.12;96.36;102231.78;2084805;28;20278;-65
2023/03/30 04:00:16;;;;;;;12.30;4.50;;;;;;;4.92;95.45;102189.69;2082551;28;20277;-67
2023/03/30 04:01:17;;;;;;;8.27;4.53;;;;;;;5.21;95.85;102229.63;2080252;28;20679;-65
2023/03/30 04:02:18;;;;;;;9.57;4.00;;;;;;;5.20;95.61;102222.53;2078282;28;20242;-67
2023/03/30 04:03:18;;;;;;;8.87;4.07;;;;;;;5.15;95.80;102211.81;2080674;28;20320;-65
2023/03/30 04:04:19;;;;;;;10.40;4.60;;;;;;;5.21;94.38;102215.88;2085739;28;20207;-67
2023/03/30 04:05:19;;;;;;;6.07;3.63;;;;;;;5.22;92.96;102223.78;2082662;28;20187;-65
2023/03/30 04:06:20;;;;;;;7.50;4.10;;;;;;;5.24;93.78;102226.97;2083823;28;20580;-65
2023/03/30 04:07:20;;;;;;;7.50;4.13;;;;;;;4.15;96.37;102039.56;2089240;28;20187;-63
2023/03/30 04:08:21;;;;;;;9.53;4.50;;;;;;;5.19;97.02;102218.22;2085874;28;20651;-61
2023/03/30 04:09:22;;;;;;;16.57;5.23;;;;;;;5.26;96.59;102219.16;2083324;28;20180;-61
2023/03/30 04:10:22;;;;;;;17.92;6.25;;;;;;;5.24;98.54;102215.97;2084392;28;20184;-61
2023/03/30 04:11:23;;;;;;;27.67;6.50;;;;;;;5.24;97.25;102220.69;2084266;28;20181;-60
2023/03/30 04:12:23;;;;;;;13.93;5.07;;;;;;;5.20;96.72;102225.28;2085647;28;20317;-61
2023/03/30 04:13:24;;;;;;;11.00;4.30;;;;;;;5.22;97.90;102225.72;2087025;28;20207;-61
2023/03/30 04:14:25;;;;;;;6.70;3.43;;;;;;;5.10;97.23;102214.84;2082206;28;20226;-61
2023/03/30 04:15:26;;;;;;;14.37;7.77;;;;;;;4.99;95.67;102194.56;2084381;28;20653;-62
2023/03/30 04:16:27;;;;;;;16.15;5.88;;;;;;;5.12;96.11;102224.31;2085631;28;20188;-60
2023/03/30 04:17:27;;;;;;;7.03;3.50;;;;;;;4.15;95.14;102077.19;2085480;28;20188;-60
2023/03/30 04:18:32;;;;;;;5.40;3.23;;;;;;;4.28;95.18;102117.91;2087826;28;20762;-61
2023/03/30 04:19:32;;;;;;;7.18;3.30;;;;;;;4.97;94.87;102225.16;2083743;28;20222;-62
2023/03/30 04:20:33;;;;;;;7.20;3.27;;;;;;;4.98;94.34;102229.47;2079747;28;20208;-62
2023/03/30 04:21:34;;;;;;;5.90;3.63;;;;;;;5.02;95.03;102229.59;2085090;28;20298;-62
2023/03/30 04:22:35;;;;;;;5.47;3.55;;;;;;;5.05;98.18;102237.09;2084200;28;20197;-61
2023/03/30 04:23:35;;;;;;;14.40;4.17;;;;;;;5.06;97.58;102230.44;2083537;28;20185;-61
2023/03/30 04:24:35;;;;;;;8.80;3.63;;;;;;;5.07;99.13;102229.31;2085489;28;20215;-63
2023/03/30 04:25:36;;;;;;;9.83;4.23;;;;;;;5.09;99.00;102227.81;2082633;28;20579;-63
2023/03/30 04:26:36;;;;;;;10.20;4.30;;;;;;;4.96;97.85;102209.81;2081201;28;20639;-62
2023/03/30 04:27:37;;;;;;;12.90;4.50;;;;;;;5.07;98.76;102232.06;2084751;28;20193;-62
2023/03/30 04:28:39;;;;;;;10.33;3.90;;;;;;;5.02;98.74;102230.38;2082808;28;20188;-62
2023/03/30 04:29:39;;;;;;;9.15;4.07;;;;;;;5.04;98.79;102236.31;2083383;28;20281;-62
2023/03/30 04:30:40;;;;;;;10.37;4.27;;;;;;;5.07;99.73;102235.59;2079452;28;20205;-63
2023/03/30 04:31:41;;;;;;;11.13;4.87;;;;;;;5.00;100.00;102215.38;2077672;28;20709;-62
2023/03/30 04:32:43;;;;;;;19.30;12.53;;;;;;;5.03;99.55;102229.22;2074240;28;20191;-62
2023/03/30 04:33:51;;;;;;;8.45;5.65;;;;;;;5.02;96.53;102235.09;2077651;28;20208;-63
2023/03/30 04:34:55;;;;;;;7.47;5.22;;;;;;;4.92;96.13;102232.88;2077822;28;20265;-61
2023/03/30 04:35:55;;;;;;;10.50;4.80;;;;;;;4.87;94.52;102244.91;2075697;28;20619;-60
2023/03/30 04:36:56;;;;;;;10.83;5.27;;;;;;;4.85;95.07;102243.66;2079458;28;20185;-60
2023/03/30 04:37:59;;;;;;;12.75;4.47;;;;;;;4.39;95.27;102162.06;2080106;28;20668;-61
2023/03/30 04:38:59;;;;;;;9.98;4.00;;;;;;;4.89;94.38;102241.81;2079717;28;20194;-61
2023/03/30 04:40:01;;;;;;;7.20;4.20;;;;;;;4.90;94.28;102251.66;2085766;28;20641;-61
2023/03/30 04:41:01;;;;;;;6.85;4.13;;;;;;;4.94;94.53;102267.09;2080534;28;20265;-61
2023/03/30 04:42:03;;;;;;;9.50;5.60;;;;;;;4.96;95.14;102255.72;2081072;28;20223;-61
2023/03/30 04:43:03;;;;;;;13.55;7.40;;;;;;;4.98;96.65;102251.47;2085746;28;20268;-61
2023/03/30 04:44:06;;;;;;;10.77;7.13;;;;;;;4.47;96.88;102178.38;2079173;28;20189;-62
2023/03/30 04:45:07;;;;;;;14.25;8.20;;;;;;;4.97;98.28;102251.84;2079809;28;20586;-61
2023/03/30 04:46:08;;;;;;;17.03;7.90;;;;;;;4.91;99.07;102258.72;2076747;28;20280;-61
2023/03/30 04:47:08;;;;;;;13.77;8.87;;;;;;;4.96;99.73;102255.72;2075701;28;20199;-61
2023/03/30 04:48:08;;;;;;;14.97;9.40;;;;;;;4.88;100.00;102237.47;2077746;28;20222;-61
2023/03/30 04:49:09;;;;;;;16.50;9.47;;;;;;;4.89;100.00;102239.88;2083035;28;20269;-61
2023/03/30 04:50:10;;;;;;;17.90;9.60;;;;;;;4.97;100.00;102246.34;2082505;28;20195;-62
2023/03/30 04:51:10;;;;;;;17.80;10.53;;;;;;;4.91;100.00;102220.25;2083336;28;20521;-61
2023/03/30 04:52:11;;;;;;;18.17;10.67;;;;;;;5.18;100.00;102255.09;2084993;28;20194;-61
2023/03/30 04:53:13;;;;;;;13.93;9.13;;;;;;;4.37;100.00;102124.00;2084125;28;20183;-61
2023/03/30 04:54:14;;;;;;;20.40;8.88;;;;;;;5.23;100.00;102246.59;2082115;28;20194;-62
2023/03/30 04:55:14;;;;;;;13.60;8.30;;;;;;;5.29;100.00;102250.66;2081513;28;20189;-61
2023/03/30 04:56:15;;;;;;;17.27;8.70;;;;;;;5.29;100.00;102251.41;2085046;28;20288;-61
2023/03/30 04:57:15;;;;;;;17.67;9.53;;;;;;;4.53;100.00;102124.81;2083873;28;20693;-61
2023/03/30 04:58:16;;;;;;;13.27;7.70;;;;;;;5.19;100.00;102235.47;2082524;28;20348;-62
2023/03/30 04:59:17;;;;;;;12.40;7.10;;;;;;;5.44;100.00;102258.84;2073791;28;20256;-59
2023/03/30 05:00:18;;;;;;;13.03;6.87;;;;;;;5.42;100.00;102260.34;2045820;28;20218;-63
2023/03/30 05:01:19;;;;;;;13.13;6.60;;;;;;;5.48;100.00;102259.72;2082078;28;20187;-63
2023/03/30 05:02:19;;;;;;;10.27;6.63;;;;;;;5.55;100.00;102259.88;2086025;28;20194;-63
2023/03/30 05:03:20;;;;;;;13.47;7.27;;;;;;;5.58;100.00;102267.44;2086976;28;20499;-63
2023/03/30 05:04:20;;;;;;;10.97;6.53;;;;;;;5.65;100.00;102270.31;2081561;28;20222;-64